首页
METAR-TAF:

METAR-TAF

机场 :

纳塔尔, 北里约格朗德, 巴西

纬度: 05-46-05S, 经度: 035-22-34W, 海拔: 88米

当前天气观测

该预报发布于53分钟前的10:00 UTC
风速5节,风向南转西南,在西转西南之间变化
温度 25°C
湿度 100%
气压 1013 hPa
能見度: 9000
散云层高于500英尺
散云层高于2100英尺
少量云层高于2500英尺, 塔状积云.

METAR: SBSG 241000Z 21005KT 190V250 9000 SCT005 SCT021 FEW025TCU 25/25 Q1013

时间: 07:53 (10:53 UTC)

预报

该预报发布于6小时和53分钟前的04:00 UTC
预报有效从24日的 06点(UTC)到 25日的 06点(UTC)
风速8节,风向西转西南
能見度: 8000
少量云层高于1700英尺
少量云层高于2500英尺, 塔状积云.
成为
从 24日的 09点(UTC)到 24日的 11点(UTC)
风速5节,风向西
散云层高于1500英尺
成为
从 24日的 14点(UTC)到 24日的 16点(UTC)
风速5节,风向东转东北
散云层高于2000英尺
短暂存在
从 24日的 21点(UTC)到 24日的 23点(UTC)
风速5节,风向东转东北
能見度: 6000
多云层高于2000英尺
少量云层高于2500英尺, 塔状积云.
阵雨

TAF: SBSG 240400Z 2406/2506 24008KT 8000 FEW017 FEW025TCU TN23/2408Z T X30/2416Z BECMG 2409/2411 27005KT SCT015 BECMG 2414/2416 07005KT SCT020 TEMPO 2421/2423 07005KT 6000 SHRA BKN020 FEW025TCU RMK PCQ

超过4000个机场的气象观测和天气预报(METAR&TAF报告)。

可查询的气象台以黄色和红色小点在地图上表示。

将鼠标移到小点上方,可查看气象台名称。

然后点击查看天气观测和预报。

如需切换地图:点击带黑十字的绿色按钮放大地图;点击带横线的绿色按钮缩小地图;或者点击绿色箭头查看邻近地区的地图。


METAR-TAF: